| time (UTC) | temp F | wind direction | speed knots | gust knots | rain 1hr in | rain 24hr in | rain mn in | humidity % | barometer mb |
| 20260504211918 | 66 | 48 | 0.9 | 6.1 | 0.00 | 0.00 | 0.00 | 46 | 1006.4 |
| 20260504211418 | 66 | 34 | 0.9 | 7.0 | 0.00 | 0.00 | 0.00 | 46 | 1006.4 |
| 20260504210415 | 67 | 117 | 1.7 | 8.7 | 0.00 | 0.00 | 0.00 | 44 | 1006.4 |
| 20260504205914 | 67 | 348 | 1.7 | 5.2 | 0.00 | 0.00 | 0.00 | 41 | 1006.4 |
| 20260504205413 | 67 | 186 | 1.7 | 6.1 | 0.00 | 0.00 | 0.00 | 42 | 1006.4 |
| 20260504204913 | 66 | 182 | 1.7 | 6.1 | 0.00 | 0.00 | 0.00 | 41 | 1006.4 |
| 20260504204414 | 67 | 135 | 1.7 | 7.8 | 0.00 | 0.00 | 0.00 | 41 | 1006.5 |
| 20260504204147 | 67 | 194 | 2.6 | 11.3 | 0.00 | 0.00 | 0.00 | 41 | 1006.5 |
| 20260504203409 | 67 | 355 | 1.7 | 11.3 | 0.00 | 0.00 | 0.00 | 43 | 1006.5 |
| 20260504202909 | 66 | 128 | 0.9 | 7.0 | 0.00 | 0.00 | 0.00 | 44 | 1006.6 |
| 20260504202408 | 66 | 117 | 1.7 | 7.8 | 0.00 | 0.00 | 0.00 | 43 | 1006.7 |
| 20260504201908 | 67 | 26 | 0.9 | 8.7 | 0.00 | 0.00 | 0.00 | 42 | 1006.5 |
| 20260504201408 | 68 | 340 | 0.9 | 8.7 | 0.00 | 0.00 | 0.00 | 41 | 1006.6 |
| 20260504200907 | 68 | 124 | 0.9 | 3.5 | 0.00 | 0.00 | 0.00 | 42 | 1006.6 |
| 20260504200408 | 68 | 124 | 0.9 | 5.2 | 0.00 | 0.00 | 0.00 | 44 | 1006.6 |
| 20260504200139 | 67 | 103 | 0.9 | 5.2 | 0.00 | 0.00 | 0.00 | 42 | 1006.6 |
| 20260504195407 | 67 | 238 | 1.7 | 8.7 | 0.00 | 0.00 | 0.00 | 44 | 1006.8 |
| 20260504194905 | 66 | 269 | 2.6 | 8.7 | 0.00 | 0.00 | 0.00 | 43 | 1006.7 |
| 20260504194405 | 67 | 154 | 2.6 | 7.0 | 0.00 | 0.00 | 0.00 | 42 | 1006.9 |
| 20260504193907 | 66 | 15 | 1.7 | 7.0 | 0.00 | 0.00 | 0.00 | 43 | 1006.9 |
| 20260504193405 | 65 | 261 | 0.9 | 6.1 | 0.00 | 0.00 | 0.00 | 45 | 1006.8 |
| 20260504193136 | 65 | 141 | 1.7 | 7.0 | 0.00 | 0.00 | 0.00 | 45 | 1007.0 |
| 20260504192636 | 65 | 5 | 1.7 | 7.0 | 0.00 | 0.00 | 0.00 | 44 | 1007.0 |
| 20260504191906 | 66 | 304 | 1.7 | 7.8 | 0.00 | 0.00 | 0.00 | 46 | 1007.0 |
| 20260504191628 | 66 | 222 | 2.6 | 13.9 | 0.00 | 0.00 | 0.00 | 43 | 1007.1 |
| 20260504191128 | 67 | 246 | 1.7 | 13.9 | 0.00 | 0.00 | 0.00 | 44 | 1007.1 |
| 20260504190629 | 66 | 202 | 0.9 | 6.1 | 0.00 | 0.00 | 0.00 | 45 | 1007.1 |
| 20260504185857 | 65 | 57 | 1.7 | 8.7 | 0.00 | 0.00 | 0.00 | 45 | 1007.1 |
| 20260504185355 | 66 | 334 | 1.7 | 8.7 | 0.00 | 0.00 | 0.00 | 47 | 1007.1 |
| 20260504184856 | 65 | 310 | 0.9 | 5.2 | 0.00 | 0.00 | 0.00 | 45 | 1007.2 |
| 20260504184627 | 65 | 355 | 1.7 | 6.1 | 0.00 | 0.00 | 0.00 | 48 | 1007.2 |
| 20260504183853 | 63 | 227 | 0.9 | 6.1 | 0.00 | 0.00 | 0.00 | 48 | 1007.3 |
| 20260504183354 | 63 | 314 | 0.9 | 6.1 | 0.00 | 0.00 | 0.00 | 48 | 1007.3 |
| 20260504182854 | 62 | 351 | 0.9 | 6.1 | 0.00 | 0.00 | 0.00 | 49 | 1007.3 |
| 20260504182353 | 62 | 167 | 0.0 | 5.2 | 0.00 | 0.00 | 0.00 | 51 | 1007.6 |
| 20260504181853 | 61 | 355 | 0.9 | 5.2 | 0.00 | 0.00 | 0.00 | 55 | 1007.6 |
| 20260504181624 | 61 | 355 | 0.9 | 6.1 | 0.00 | 0.00 | 0.00 | 50 | 1007.7 |
| 20260504181119 | 61 | 315 | 1.7 | 7.8 | 0.00 | 0.00 | 0.00 | 50 | 1007.7 |
| 20260504180347 | 62 | 316 | 1.7 | 7.8 | 0.00 | 0.00 | 0.00 | 49 | 1007.7 |
| 20260504180118 | 62 | 234 | 1.7 | 8.7 | 0.00 | 0.00 | 0.00 | 48 | 1007.8 |
| 20260504175347 | 63 | 88 | 1.7 | 8.7 | 0.00 | 0.00 | 0.00 | 50 | 1007.9 |
| 20260504174847 | 64 | 346 | 1.7 | 6.1 | 0.00 | 0.00 | 0.00 | 48 | 1007.9 |
| 20260504174349 | 63 | 62 | 1.7 | 6.1 | 0.00 | 0.00 | 0.00 | 53 | 1007.8 |
| 20260504173845 | 62 | 91 | 2.6 | 6.1 | 0.00 | 0.00 | 0.00 | 53 | 1008.2 |
| 20260504173617 | 62 | 96 | 2.6 | 6.1 | 0.00 | 0.00 | 0.00 | 54 | 1008.0 |
| 20260504172846 | 60 | 77 | 0.9 | 5.2 | 0.00 | 0.00 | 0.00 | 58 | 1008.2 |
| 20260504172342 | 58 | 94 | 0.0 | 3.5 | 0.00 | 0.00 | 0.00 | 61 | 1008.4 |
| 20260504171841 | 55 | 271 | 0.0 | 1.7 | 0.00 | 0.00 | 0.00 | 67 | 1008.5 |
| 20260504171611 | 55 | 271 | 0.0 | 1.7 | 0.00 | 0.00 | 0.00 | 71 | 1008.5 |
| 20260504171109 | 55 | 271 | 0.0 | 1.7 | 0.00 | 0.00 | 0.00 | 64 | 1008.4 |
| 20260504170339 | 55 | 305 | 0.0 | 1.7 | 0.00 | 0.00 | 0.00 | 67 | 1008.4 |
| 20260504150805 | 57 | 34 | 0.9 | 5.2 | 0.00 | 0.00 | 0.00 | 55 | 1008.3 |
| 20260504150537 | 57 | 55 | 1.7 | 5.2 | 0.00 | 0.00 | 0.00 | 59 | 1008.1 |
| 20260504141300 | 56 | 327 | 0.9 | 6.1 | 0.00 | 0.01 | 0.00 | 59 | 1008.3 |
| 20260504140801 | 56 | 208 | 1.7 | 7.8 | 0.00 | 0.01 | 0.00 | 59 | 1008.3 |
| 20260504130750 | 52 | 300 | 1.7 | 5.2 | 0.00 | 0.01 | 0.00 | 69 | 1008.9 |
| 20260504130248 | 52 | 157 | 2.6 | 7.0 | 0.00 | 0.01 | 0.00 | 69 | 1009.0 |
| 20260504120237 | 45 | 117 | 0.9 | 1.7 | 0.00 | 0.01 | 0.00 | 84 | 1009.6 |
| 20260504110226 | 40 | 317 | 0.0 | 0.0 | 0.00 | 0.01 | 0.00 | 92 | 1009.8 |
| 20260504100205 | 41 | 233 | 0.9 | 3.5 | 0.00 | 0.01 | 0.00 | 84 | 1009.8 |
| 20260504081639 | 40 | 333 | 0.0 | 1.7 | 0.00 | 0.01 | 0.00 | 84 | 1010.0 |
| 20260504081138 | 40 | 333 | 0.0 | 1.7 | 0.00 | 0.01 | 0.00 | 82 | 1010.1 |
| 20260504080635 | 40 | 333 | 0.0 | 0.9 | 0.00 | 0.01 | 0.00 | 82 | 1010.1 |
| 20260504080137 | 40 | 333 | 0.0 | 1.7 | 0.00 | 0.01 | 0.00 | 82 | 1010.2 |
| 20260504070125 | 41 | 79 | 0.0 | 1.7 | 0.00 | 0.01 | 0.00 | 81 | 1010.2 |
| 20260504060108 | 37 | 227 | 0.0 | 1.7 | 0.00 | 0.01 | 0.00 | 83 | 1009.9 |
| 20260504050331 | 36 | 286 | 0.0 | 0.0 | 0.00 | 0.01 | 0.00 | 80 | 1010.2 |
| 20260504045831 | 36 | 286 | 0.0 | 0.0 | 0.00 | 0.01 | 0.00 | 79 | 1010.1 |
| 20260504045100 | 36 | 286 | 0.0 | 0.0 | 0.00 | 0.01 | 0.00 | 80 | 1010.2 |
| 20260504044600 | 36 | 286 | 0.0 | 0.0 | 0.00 | 0.01 | 0.00 | 80 | 1010.2 |
| 20260504044059 | 36 | 286 | 0.0 | 0.0 | 0.00 | 0.01 | 0.00 | 80 | 1010.4 |
| 20260504043559 | 36 | 286 | 0.0 | 0.0 | 0.00 | 0.01 | 0.00 | 81 | 1010.4 |
| 20260504043058 | 36 | 286 | 0.0 | 0.0 | 0.00 | 0.01 | 0.00 | 82 | 1010.3 |
| 20260504042826 | 36 | 286 | 0.0 | 0.0 | 0.00 | 0.01 | 0.00 | 80 | 1010.4 |
| 20260504042056 | 36 | 286 | 0.0 | 0.0 | 0.00 | 0.01 | 0.00 | 81 | 1010.3 |
| 20260504041555 | 36 | 286 | 0.0 | 0.0 | 0.00 | 0.01 | 0.00 | 79 | 1010.4 |
| 20260504041325 | 36 | 286 | 0.0 | 0.0 | 0.00 | 0.01 | 0.00 | 80 | 1010.3 |
| 20260504040555 | 36 | 286 | 0.0 | 0.0 | 0.00 | 0.01 | 0.00 | 82 | 1010.3 |
| 20260504040051 | 36 | 286 | 0.0 | 0.9 | 0.00 | 0.01 | 0.00 | 80 | 1010.2 |
| 20260504035549 | 36 | 286 | 0.0 | 1.7 | 0.00 | 0.01 | 0.01 | 80 | 1010.2 |
| 20260504035050 | 36 | 286 | 0.0 | 1.7 | 0.00 | 0.01 | 0.01 | 81 | 1010.2 |
| 20260504034047 | 36 | 286 | 0.0 | 0.0 | 0.00 | 0.01 | 0.01 | 82 | 1010.2 |
| 20260504033817 | 36 | 286 | 0.0 | 0.9 | 0.00 | 0.01 | 0.01 | 81 | 1010.1 |
| 20260504033041 | 37 | 286 | 0.9 | 1.7 | 0.00 | 0.01 | 0.01 | 79 | 1010.1 |
| 20260504032540 | 37 | 286 | 0.9 | 1.7 | 0.00 | 0.01 | 0.01 | 80 | 1010.1 |
| 20260504032311 | 37 | 286 | 0.9 | 1.7 | 0.00 | 0.01 | 0.01 | 81 | 1010.1 |
| 20260504031810 | 37 | 286 | 0.0 | 1.7 | 0.00 | 0.01 | 0.01 | 83 | 1010.2 |
| 20260504031310 | 37 | 286 | 0.0 | 1.7 | 0.00 | 0.01 | 0.01 | 78 | 1010.2 |
| 20260504030539 | 37 | 286 | 0.9 | 1.7 | 0.00 | 0.01 | 0.01 | 81 | 1010.1 |
| 20260504030038 | 37 | 286 | 0.9 | 1.7 | 0.00 | 0.01 | 0.01 | 81 | 1010.2 |
| 20260504025536 | 37 | 286 | 0.9 | 1.7 | 0.00 | 0.01 | 0.01 | 82 | 1010.2 |
| 20260504025036 | 37 | 286 | 0.9 | 1.7 | 0.00 | 0.01 | 0.01 | 83 | 1010.2 |
| 20260504024805 | 37 | 286 | 0.9 | 1.7 | 0.00 | 0.01 | 0.01 | 83 | 1010.1 |
| 20260504024033 | 37 | 286 | 0.0 | 1.7 | 0.00 | 0.01 | 0.01 | 82 | 1010.2 |
| 20260504023534 | 37 | 286 | 0.0 | 0.0 | 0.00 | 0.01 | 0.01 | 79 | 1010.2 |
| 20260504022759 | 37 | 286 | 0.9 | 1.7 | 0.00 | 0.01 | 0.01 | 80 | 1010.3 |
| 20260504022027 | 37 | 286 | 1.7 | 1.7 | 0.00 | 0.01 | 0.01 | 81 | 1010.3 |
| 20260504021527 | 37 | 286 | 1.7 | 1.7 | 0.00 | 0.01 | 0.01 | 79 | 1010.3 |
| 20260504021026 | 37 | 286 | 0.9 | 1.7 | 0.00 | 0.01 | 0.01 | 79 | 1010.3 |
| 20260504020528 | 37 | 286 | 0.9 | 1.7 | 0.00 | 0.01 | 0.01 | 78 | 1010.3 |
| 20260504020021 | 38 | 286 | 0.9 | 1.7 | 0.00 | 0.01 | 0.01 | 78 | 1010.4 |
| 20260504015521 | 38 | 286 | 1.7 | 2.6 | 0.00 | 0.01 | 0.01 | 79 | 1010.2 |
| 20260504015253 | 38 | 286 | 1.7 | 2.6 | 0.00 | 0.01 | 0.01 | 78 | 1010.2 |
| 20260504014021 | 38 | 286 | 1.7 | 2.6 | 0.00 | 0.01 | 0.01 | 81 | 1010.3 |
| 20260504013522 | 38 | 286 | 1.7 | 2.6 | 0.00 | 0.01 | 0.01 | 77 | 1010.3 |
| 20260504013248 | 38 | 286 | 1.7 | 2.6 | 0.00 | 0.01 | 0.01 | 78 | 1010.2 |
| 20260504012515 | 38 | 286 | 1.7 | 2.6 | 0.00 | 0.01 | 0.01 | 77 | 1010.2 |
| 20260504012017 | 39 | 286 | 1.7 | 2.6 | 0.00 | 0.01 | 0.01 | 77 | 1010.2 |
| 20260504011515 | 39 | 286 | 1.7 | 2.6 | 0.00 | 0.01 | 0.01 | 79 | 1010.1 |
| 20260504011247 | 39 | 286 | 1.7 | 2.6 | 0.00 | 0.01 | 0.01 | 78 | 1010.1 |
| 20260504010516 | 39 | 279 | 1.7 | 2.6 | 0.00 | 0.01 | 0.01 | 77 | 1009.9 |
| 20260504010011 | 39 | 279 | 1.7 | 2.6 | 0.00 | 0.01 | 0.01 | 77 | 1009.9 |
| 20260504005510 | 39 | 279 | 1.7 | 2.6 | 0.00 | 0.01 | 0.01 | 77 | 1009.8 |
| 20260504005008 | 39 | 279 | 1.7 | 2.6 | 0.00 | 0.01 | 0.01 | 78 | 1009.8 |
| 20260504004508 | 39 | 279 | 1.7 | 2.6 | 0.00 | 0.01 | 0.01 | 78 | 1009.8 |
| 20260504004008 | 39 | 279 | 1.7 | 2.6 | 0.00 | 0.01 | 0.01 | 76 | 1009.8 |
| 20260504003510 | 40 | 279 | 1.7 | 2.6 | 0.00 | 0.01 | 0.01 | 74 | 1009.8 |
| 20260504003235 | 40 | 279 | 1.7 | 2.6 | 0.00 | 0.02 | 0.01 | 76 | 1009.8 |
| 20260504002504 | 40 | 277 | 1.7 | 2.6 | 0.00 | 0.02 | 0.01 | 75 | 1009.7 |
| 20260504002005 | 40 | 267 | 1.7 | 2.6 | 0.00 | 0.02 | 0.01 | 75 | 1009.6 |
| 20260504001504 | 40 | 266 | 1.7 | 2.6 | 0.00 | 0.02 | 0.01 | 75 | 1009.6 |
| 20260504000503 | 41 | 243 | 1.7 | 2.6 | 0.00 | 0.02 | 0.01 | 73 | 1009.5 |
| 20260504000000 | 41 | 240 | 1.7 | 2.6 | 0.00 | 0.02 | 0.01 | 73 | 1009.4 |
| 20260503235500 | 42 | 240 | 1.7 | 2.6 | 0.00 | 0.02 | 0.01 | 71 | 1009.4 |
| 20260503235001 | 42 | 240 | 1.7 | 2.6 | 0.00 | 0.02 | 0.01 | 67 | 1009.4 |
| 20260503234458 | 42 | 240 | 0.9 | 2.6 | 0.00 | 0.02 | 0.01 | 67 | 1009.3 |
| 20260503233956 | 43 | 240 | 0.9 | 1.7 | 0.00 | 0.02 | 0.01 | 66 | 1009.3 |
| 20260503233727 | 44 | 240 | 0.9 | 2.6 | 0.00 | 0.03 | 0.01 | 64 | 1009.2 |
| 20260503232951 | 44 | 240 | 0.9 | 2.6 | 0.00 | 0.04 | 0.01 | 60 | 1009.2 |
| 20260503232452 | 45 | 240 | 0.9 | 2.6 | 0.00 | 0.07 | 0.01 | 59 | 1009.1 |
| 20260503232223 | 45 | 221 | 0.9 | 2.6 | 0.00 | 0.13 | 0.01 | 59 | 1009.2 |
| 20260503231721 | 46 | 113 | 1.7 | 7.0 | 0.00 | 0.16 | 0.01 | 57 | 1009.1 |
| 20260503230947 | 46 | 298 | 1.7 | 7.0 | 0.00 | 0.16 | 0.01 | 53 | 1009.1 |
| 20260503230446 | 46 | 254 | 0.9 | 6.1 | 0.00 | 0.16 | 0.01 | 54 | 1009.1 |
| 20260503225943 | 46 | 181 | 0.9 | 4.3 | 0.00 | 0.16 | 0.01 | 58 | 1009.2 |
| 20260503225442 | 47 | 181 | 0.0 | 4.3 | 0.00 | 0.16 | 0.01 | 57 | 1009.2 |
| 20260503224941 | 47 | 330 | 0.9 | 4.3 | 0.00 | 0.16 | 0.01 | 58 | 1009.1 |
| 20260503224439 | 47 | 332 | 0.9 | 4.3 | 0.00 | 0.16 | 0.01 | 55 | 1009.1 |
| 20260503223939 | 47 | 355 | 0.9 | 3.5 | 0.00 | 0.16 | 0.01 | 53 | 1009.1 |
| 20260503223438 | 47 | 53 | 0.9 | 3.5 | 0.00 | 0.16 | 0.01 | 56 | 1009.1 |
| 20260503222935 | 48 | 53 | 0.9 | 4.3 | 0.00 | 0.16 | 0.01 | 54 | 1009.1 |
| 20260503222435 | 48 | 173 | 0.9 | 4.3 | 0.00 | 0.16 | 0.01 | 50 | 1009.0 |
| 20260503222207 | 48 | 45 | 1.7 | 4.3 | 0.00 | 0.16 | 0.01 | 50 | 1008.9 |
| 20260503221432 | 48 | 40 | 1.7 | 3.5 | 0.00 | 0.16 | 0.01 | 50 | 1008.9 |
| 20260503220932 | 48 | 55 | 1.7 | 4.3 | 0.00 | 0.16 | 0.01 | 52 | 1008.9 |
| 20260503220703 | 48 | 17 | 1.7 | 4.3 | 0.00 | 0.16 | 0.01 | 50 | 1008.8 |
| 20260503215931 | 48 | 133 | 0.9 | 3.5 | 0.00 | 0.16 | 0.01 | 55 | 1008.9 |
| 20260503215431 | 48 | 61 | 0.9 | 3.5 | 0.00 | 0.16 | 0.01 | 53 | 1008.8 |
| 20260503214932 | 48 | 61 | 0.9 | 3.5 | 0.00 | 0.16 | 0.01 | 52 | 1008.8 |
| 20260503214428 | 48 | 17 | 0.9 | 3.5 | 0.00 | 0.16 | 0.01 | 52 | 1008.8 |
| 20260503213928 | 48 | 51 | 0.9 | 3.5 | 0.00 | 0.16 | 0.01 | 53 | 1008.9 |
| 20260503213428 | 48 | 228 | 0.9 | 3.5 | 0.00 | 0.16 | 0.01 | 57 | 1009.0 |
| 20260503212927 | 48 | 234 | 0.9 | 3.5 | 0.00 | 0.16 | 0.01 | 55 | 1008.9 |